Airport Name : Ignacio Agramonte Intl

Other Name : Camaguey

ICAO : MUCM

IATA : CMW

FAA :

Latitude : 21.420278

Longitude : -77.8475

Country : Cuba

Local Date and Time : 5/25/2018 6:55:00 AM

 

TAF (Terminal Aerodrome Forecast)

MUCM 250500Z 2506/2606 VRB03KT 9000 FEW020 BKN060 BECMG 2513/2515 06010KT TEMPO 2518/2602 3000 TSRA SCT015CB BKN018 BECMG 2603/2605 VRB03KT

 

METAR (METeorological Aerodrome Report)

MUCM 251034Z 09008KT 050V120 7000 BKN012 23/22 Q1015

MUCM 250951Z 09008KT 060V120 9000 SCT018 BKN080 24/22 Q1015

MUCM 250852Z 09008KT 060V130 8000 BKN018 24/22 Q1015

MUCM 250750Z 09006KT 050V120 9000 SCT020 24/22 Q1015